Terminal Aerodrome Forecast
Issued by NWS

Home | Current Version | Previous Version | Text Only | Print | Product List | Glossary On
Versions: 1 2 3 4 5 6 7 8 9 10 11 12 13 14 15 16 17 18 19 20 21
000
FTUS44 KLIX 021842 AAA
TAFHUM
TAF AMD
KHUM 021842Z 0219/0318 VRB03KT P6SM VCSH FEW008 SCT020
     FM022000 18009KT P6SM -RA VCTS BKN040CB OVC150
     FM022100 20008KT P6SM -RA SCT045
     FM030200 20002KT 5SM BR VCSH BKN008 OVC015
     FM030900 35003KT P6SM SCT008 BKN040 OVC150=

USA.gov is the U.S. government's official web portal to all federal, state and local government web resources and services.